Dennis, MA

10:06 AM EST on November 24, 2014 (GMT -0500)
Scargo Hill Dennis MA | Change Station
CLOSE
Current Station
Personal Weather Station
Location: Dennis, MA
Elevation: 133 ft
Nearby Weather Stations

Elev 133 ft 41.74 °N, 70.18 °W | Updated 0 second ago

Rain
Rain
57.0 °F
Feels Like 57.0 °F
N
6.0
Wind Variable Wind from ESE
Gusts 15.2 mph

Today
High -- | Low -- °F
--% Chance of Precip.
Yesterday
High -- | Low -- °F
Precip. -- in
6:40 AM 4:14 PM
Waxing Crescent, 5% visible
Pressure 29.80 in
Visibility 2.0 miles
Clouds Overcast 500 ft
Dew Point 57 °F
Humidity 99%
Rainfall 0.27 in
Snow Depth Not available.
UV 1 out of 12
Pollen .10 out of 12
Air Quality Not available.
Flu Activity Not available.
METAR KHYA 241456Z 17012G27KT 2SM RA BR OVC005 14/13 A2980 RMK AO2 PK WND 15030/1406 RAE01B19 SLP090 P0004 60028 T01390128 58044

More Conditions Fewer Conditions

Pressure 29.80 in
Visibility 2.0 miles
Clouds Overcast 500 ft
Dew Point 57 °F
Humidity 99%
Rainfall 0.27 in
Snow Depth Not available.
UV 1 out of 12
Pollen .10 out of 12
Air Quality Not available.
Flu Activity Not available.
METAR KHYA 241456Z 17012G27KT 2SM RA BR OVC005 14/13 A2980 RMK AO2 PK WND 15030/1406 RAE01B19 SLP090 P0004 60028 T01390128 58044

More Conditions Fewer Conditions

10-Day Weather Forecast

Almanac

Astronomy

Nov. 24, 2014 Rise Set
Actual Time
Civil Twilight
Nautical Twilight
Astronomical Twilight
Moon
Length of Visible Light
Length of Day
Tomorrow will be .
, % of the Moon is Illuminated

Today's Extremes

State Highs State Lows

Community

WunderPhotos

Upload Photos

1,773,360 photos uploaded!

WunderBlogs® & News

Nearby

Air Quality

  Air Quality AQ Index Pollutant
Not available.

Snow Depth

Station Depth Elevation

Earthquake Activity

City Distance Mag. Time & Date
Minimum magnitude displayed is 2.5.

Coastal Water Temperatures

Place Temperature

Nearby Weather Stations